Time;durP1;ratioP1;P1;durP2;ratioP2;P2;SDS_P1;SDS_P2;PMS_P1;PMS_P2;Temp;Humidity;BMP_temperature;BMP_pressure;BME280_temperature;BME280_humidity;BME280_pressure;Samples;Min_cycle;Max_cycle;Signal;HPM_P1;HPM_P2
2022/08/17 00:02:18;;;;;;;17.05;15.45;;;20.90;99.90;;;;;;5003696;28;20460;-72
2022/08/17 00:04:53;;;;;;;15.82;14.38;;;20.90;99.90;;;;;;4997611;28;20445;-72
2022/08/17 00:07:20;;;;;;;15.25;13.73;;;20.90;99.90;;;;;;4989762;28;20050;-73
2022/08/17 00:09:47;;;;;;;15.88;14.40;;;20.90;99.90;;;;;;5001560;28;20051;-73
2022/08/17 00:12:14;;;;;;;16.05;14.50;;;20.90;99.90;;;;;;4997159;28;20065;-73
2022/08/17 00:15:01;;;;;;;18.17;16.48;;;20.90;99.90;;;;;;4994522;28;20064;-73
2022/08/17 00:17:28;;;;;;;18.45;16.48;;;20.80;99.90;;;;;;4994101;28;20492;-71
2022/08/17 00:19:55;;;;;;;18.30;16.60;;;20.90;99.90;;;;;;4990069;28;20073;-76
2022/08/17 00:22:21;;;;;;;17.42;15.50;;;20.80;99.90;;;;;;4999842;28;21812;-74
2022/08/17 00:25:04;;;;;;;16.95;15.25;;;20.90;99.90;;;;;;4991108;28;20060;-72
2022/08/17 00:27:31;;;;;;;18.55;16.80;;;20.90;99.90;;;;;;4998288;28;20503;-75
2022/08/17 00:29:58;;;;;;;27.42;17.80;;;20.90;99.90;;;;;;5000381;28;20057;-75
2022/08/17 00:32:25;;;;;;;18.63;16.75;;;20.90;99.90;;;;;;4995080;28;20793;-74
2022/08/17 00:35:16;;;;;;;17.45;15.77;;;20.90;99.90;;;;;;4996595;28;20372;-73
2022/08/17 00:37:43;;;;;;;16.88;15.18;;;21.00;99.90;;;;;;5001464;28;20073;-73
2022/08/17 00:40:13;;;;;;;17.20;15.70;;;21.00;99.90;;;;;;5002222;28;20050;-74
2022/08/17 00:42:41;;;;;;;17.60;15.60;;;21.10;99.90;;;;;;5001586;28;20058;-73
2022/08/17 00:45:10;;;;;;;17.27;15.57;;;21.10;99.90;;;;;;4987320;28;20052;-74
2022/08/17 00:47:37;;;;;;;15.83;14.20;;;21.20;99.90;;;;;;4994264;28;20116;-74
2022/08/17 00:50:07;;;;;;;16.05;14.55;;;21.20;99.90;;;;;;4995533;28;20111;-71
2022/08/17 00:52:41;;;;;;;16.70;13.88;;;21.10;99.90;;;;;;5001564;28;20120;-74
2022/08/17 00:55:09;;;;;;;14.60;13.20;;;21.20;99.90;;;;;;4991962;28;20428;-74
2022/08/17 00:57:43;;;;;;;14.48;12.75;;;21.10;99.90;;;;;;5002509;28;20486;-73
2022/08/17 01:00:36;;;;;;;14.18;12.73;;;21.10;99.90;;;;;;4996351;28;20073;-73
2022/08/17 01:03:11;;;;;;;14.55;13.20;;;21.00;99.90;;;;;;4999644;28;20053;-73
2022/08/17 01:05:40;;;;;;;13.07;11.05;;;21.00;99.90;;;;;;4998347;28;20054;-74
2022/08/17 01:08:12;;;;;;;12.73;11.60;;;21.00;99.90;;;;;;5000139;28;20049;-72
2022/08/17 01:10:42;;;;;;;10.88;9.80;;;21.00;99.90;;;;;;4988344;28;20280;-74
2022/08/17 01:13:32;;;;;;;11.70;10.65;;;20.90;99.90;;;;;;4994793;28;20245;-73
2022/08/17 01:16:21;;;;;;;9.35;8.07;;;20.90;99.90;;;;;;4997640;28;20046;-74
2022/08/17 01:18:51;;;;;;;10.73;9.55;;;20.80;99.90;;;;;;4994849;28;20121;-74
2022/08/17 01:21:27;;;;;;;10.88;8.07;;;20.80;99.90;;;;;;4989510;28;20448;-73
2022/08/17 01:23:55;;;;;;;9.43;8.63;;;20.80;99.90;;;;;;5000050;28;20177;-73
2022/08/17 01:26:22;;;;;;;8.82;8.02;;;20.70;99.90;;;;;;4994031;28;20144;-74
2022/08/17 01:28:50;;;;;;;9.55;8.15;;;20.70;99.90;;;;;;5002530;28;20149;-74
2022/08/17 01:31:26;;;;;;;9.32;7.47;;;20.70;99.90;;;;;;4994464;28;20057;-74
2022/08/17 01:33:53;;;;;;;7.78;7.07;;;20.60;99.90;;;;;;4999862;28;20096;-72
2022/08/17 01:36:20;;;;;;;11.45;9.20;;;20.60;99.90;;;;;;5002313;28;20100;-74
2022/08/17 01:38:47;;;;;;;9.55;8.65;;;20.60;99.90;;;;;;5000422;28;20125;-75
2022/08/17 01:41:15;;;;;;;8.50;7.55;;;20.60;99.90;;;;;;4993463;28;20495;-71
2022/08/17 01:43:54;;;;;;;9.55;8.65;;;20.60;99.90;;;;;;4989696;28;20131;-73
2022/08/17 01:46:28;;;;;;;8.55;7.70;;;20.60;99.90;;;;;;5000021;28;20372;-74
2022/08/17 01:48:56;;;;;;;9.80;7.60;;;20.60;99.90;;;;;;4995383;28;20064;-73
2022/08/17 01:51:30;;;;;;;7.38;6.68;;;20.50;99.90;;;;;;4999134;28;20096;-74
2022/08/17 01:54:03;;;;;;;11.73;8.15;;;20.50;99.90;;;;;;4996905;28;20089;-74
2022/08/17 01:56:33;;;;;;;7.57;6.95;;;20.50;99.90;;;;;;4999638;28;20156;-73
2022/08/17 01:59:00;;;;;;;9.18;8.35;;;20.50;99.90;;;;;;5001256;28;20646;-73
2022/08/17 02:01:29;;;;;;;7.93;7.13;;;20.50;99.90;;;;;;5001097;28;20069;-73
2022/08/17 02:03:57;;;;;;;8.43;7.73;;;20.50;99.90;;;;;;5000990;28;20073;-75
2022/08/17 02:06:30;;;;;;;9.40;8.35;;;20.50;99.90;;;;;;4997296;28;20148;-74
2022/08/17 02:09:11;;;;;;;9.77;8.88;;;20.50;99.90;;;;;;4993295;28;20788;-73
2022/08/17 02:11:43;;;;;;;11.13;9.88;;;20.50;99.90;;;;;;4996024;28;20034;-74
2022/08/17 02:14:12;;;;;;;10.18;9.20;;;20.50;99.90;;;;;;4996167;28;20156;-74
2022/08/17 02:16:40;;;;;;;10.50;9.38;;;20.50;99.90;;;;;;4990087;28;20078;-74
2022/08/17 02:19:10;;;;;;;10.13;9.23;;;20.50;99.90;;;;;;5001185;28;20073;-74
2022/08/17 02:21:39;;;;;;;12.48;11.27;;;20.60;99.90;;;;;;4998650;28;20833;-73
2022/08/17 02:24:09;;;;;;;13.85;9.75;;;20.60;99.90;;;;;;4999342;28;20731;-74
2022/08/17 02:26:36;;;;;;;12.27;10.82;;;20.60;99.90;;;;;;4991220;28;20057;-75
2022/08/17 02:29:03;;;;;;;12.98;10.43;;;20.60;99.90;;;;;;4995904;28;20070;-74
2022/08/17 02:31:30;;;;;;;11.70;10.68;;;20.60;99.90;;;;;;4993209;28;20061;-75
2022/08/17 02:33:58;;;;;;;12.23;11.02;;;20.60;99.90;;;;;;4995442;28;20061;-75
2022/08/17 02:36:34;;;;;;;11.68;10.57;;;20.50;99.90;;;;;;5000847;28;20046;-73
2022/08/17 02:39:04;;;;;;;12.88;11.73;;;20.50;99.90;;;;;;4999042;28;20223;-75
2022/08/17 02:41:31;;;;;;;13.18;12.00;;;20.40;99.90;;;;;;4994139;28;20116;-73
2022/08/17 02:43:58;;;;;;;12.45;11.05;;;20.50;99.90;;;;;;5002627;28;20057;-71
2022/08/17 02:46:25;;;;;;;12.02;10.80;;;20.50;99.90;;;;;;4999550;28;20711;-75
2022/08/17 02:48:52;;;;;;;15.77;13.70;;;20.50;99.90;;;;;;5001546;28;20074;-73
2022/08/17 02:51:19;;;;;;;14.57;12.80;;;20.50;99.90;;;;;;4995062;28;20524;-73
2022/08/17 02:53:46;;;;;;;21.27;15.60;;;20.50;99.90;;;;;;4996150;28;20065;-76
2022/08/17 02:56:13;;;;;;;15.82;14.20;;;20.50;99.90;;;;;;5002882;28;20112;-73
2022/08/17 02:58:40;;;;;;;14.90;13.63;;;20.50;99.90;;;;;;4996421;28;20077;-74
2022/08/17 03:01:08;;;;;;;16.13;14.32;;;20.50;99.90;;;;;;5002694;28;20208;-74
2022/08/17 03:03:36;;;;;;;16.55;14.88;;;20.50;99.90;;;;;;5004603;28;20071;-72
2022/08/17 03:06:05;;;;;;;18.13;14.35;;;20.50;99.90;;;;;;5003829;28;20625;-74
2022/08/17 03:08:32;;;;;;;15.82;14.38;;;20.50;99.90;;;;;;5002762;28;20049;-74
2022/08/17 03:10:59;;;;;;;19.38;17.38;;;20.50;99.90;;;;;;5002930;28;20091;-73
2022/08/17 03:13:26;;;;;;;17.13;15.52;;;20.50;99.90;;;;;;4997649;28;20050;-74
2022/08/17 03:15:53;;;;;;;18.08;16.17;;;20.50;99.90;;;;;;5001031;28;20049;-72
2022/08/17 03:18:22;;;;;;;16.98;15.18;;;20.50;99.90;;;;;;5002905;28;20748;-74
2022/08/17 03:20:57;;;;;;;20.65;18.55;;;20.50;99.90;;;;;;5003158;28;20042;-74
2022/08/17 03:23:26;;;;;;;20.27;16.83;;;20.50;99.90;;;;;;5006303;28;20154;-74
2022/08/17 03:25:56;;;;;;;21.65;19.13;;;20.50;99.90;;;;;;4995220;28;20029;-74
2022/08/17 03:28:23;;;;;;;18.45;16.65;;;20.50;99.90;;;;;;5004510;28;20119;-75
2022/08/17 03:30:51;;;;;;;19.50;17.60;;;20.50;99.90;;;;;;4998100;28;20127;-71
2022/08/17 03:33:19;;;;;;;18.83;17.08;;;20.50;99.90;;;;;;5003429;28;20252;-74
2022/08/17 03:35:46;;;;;;;17.60;15.45;;;20.50;99.90;;;;;;5002316;28;20156;-70
2022/08/17 03:38:15;;;;;;;17.05;15.32;;;20.40;99.90;;;;;;5003066;28;20081;-72
2022/08/17 03:40:45;;;;;;;19.13;17.23;;;20.40;99.90;;;;;;5000598;28;20042;-73
2022/08/17 03:43:29;;;;;;;18.90;16.73;;;20.40;99.90;;;;;;4993613;28;20053;-73
2022/08/17 03:57:23;;;;;;;19.70;17.80;;;20.30;99.90;;;;;;4999228;28;20045;-73
2022/08/17 03:59:51;;;;;;;17.90;14.90;;;20.20;99.90;;;;;;5000812;28;20101;-73
2022/08/17 04:02:25;;;;;;;19.73;17.58;;;20.30;99.90;;;;;;5005083;28;20092;-73
2022/08/17 04:04:53;;;;;;;17.92;16.13;;;20.20;99.90;;;;;;4995107;28;20562;-74
2022/08/17 04:07:22;;;;;;;19.10;17.15;;;20.20;99.90;;;;;;4991771;28;20050;-73
2022/08/17 04:09:49;;;;;;;20.20;17.95;;;20.20;99.90;;;;;;4998943;28;20104;-74
2022/08/17 04:12:17;;;;;;;18.90;16.95;;;20.10;99.90;;;;;;4996518;28;20128;-73
2022/08/17 04:14:44;;;;;;;18.08;16.17;;;20.10;99.90;;;;;;4998806;28;20069;-73
2022/08/17 04:17:25;;;;;;;19.77;17.52;;;20.10;99.90;;;;;;4989761;28;20072;-74
2022/08/17 04:19:53;;;;;;;25.98;19.00;;;20.10;99.90;;;;;;4995452;28;20472;-74
2022/08/17 04:22:22;;;;;;;19.38;17.42;;;20.10;99.90;;;;;;4994738;28;20245;-73
2022/08/17 04:25:19;;;;;;;21.23;17.50;;;20.10;99.90;;;;;;4999024;28;20050;-73
2022/08/17 04:27:47;;;;;;;22.05;18.88;;;20.10;99.90;;;;;;4996684;28;20058;-73
2022/08/17 04:30:14;;;;;;;20.08;17.95;;;20.00;99.90;;;;;;4999939;28;20065;-75
2022/08/17 04:32:51;;;;;;;17.75;15.93;;;20.00;99.90;;;;;;4991876;28;20570;-75
2022/08/17 04:35:38;;;;;;;20.55;18.40;;;20.00;99.90;;;;;;4999015;28;20069;-73
2022/08/17 04:38:06;;;;;;;20.88;18.65;;;20.00;99.90;;;;;;5004353;28;20066;-73
2022/08/17 04:43:21;;;;;;;22.55;20.17;;;20.00;99.90;;;;;;4999698;28;20127;-72
2022/08/17 04:45:51;;;;;;;24.05;21.10;;;20.00;99.90;;;;;;5000494;28;20050;-75
2022/08/17 04:48:29;;;;;;;21.80;19.73;;;20.00;99.90;;;;;;4992391;28;20141;-75
2022/08/17 04:51:23;;;;;;;;;;;20.00;99.90;;;;;;4999166;28;20042;-73
2022/08/17 04:53:54;;;;;;;23.85;21.25;;;20.00;99.90;;;;;;5001104;28;20006;-74
2022/08/17 04:56:22;;;;;;;22.77;20.42;;;20.00;99.90;;;;;;4997018;28;20123;-73
2022/08/17 04:58:53;;;;;;;21.20;18.90;;;20.00;99.90;;;;;;5004764;28;20045;-74
2022/08/17 05:01:23;;;;;;;26.17;23.63;;;20.00;99.90;;;;;;4999078;28;20148;-72
2022/08/17 05:03:57;;;;;;;27.15;23.73;;;19.90;99.90;;;;;;4998716;28;20362;-73
2022/08/17 05:06:26;;;;;;;25.17;22.52;;;19.90;99.90;;;;;;4997639;28;20052;-73
2022/08/17 05:08:54;;;;;;;29.65;23.52;;;19.90;99.90;;;;;;4998463;28;20529;-73
2022/08/17 05:11:24;;;;;;;28.45;24.63;;;19.90;99.90;;;;;;4999486;28;20163;-73
2022/08/17 05:13:52;;;;;;;28.10;24.73;;;19.90;99.90;;;;;;5001216;28;20119;-72
2022/08/17 05:16:21;;;;;;;27.70;24.70;;;19.90;99.90;;;;;;4999634;28;20315;-72
2022/08/17 05:18:48;;;;;;;28.85;23.90;;;20.00;99.90;;;;;;5001993;28;20049;-73
2022/08/17 05:21:15;;;;;;;29.50;25.30;;;20.00;99.90;;;;;;5002421;28;20112;-71
2022/08/17 05:23:43;;;;;;;39.10;28.40;;;19.90;99.90;;;;;;5002284;28;20208;-74
2022/08/17 05:26:18;;;;;;;28.00;24.60;;;20.00;99.90;;;;;;4999523;28;20061;-72
2022/08/17 05:28:55;;;;;;;30.65;25.67;;;20.00;99.90;;;;;;4997156;28;20058;-73
2022/08/17 05:31:26;;;;;;;30.98;24.10;;;20.00;99.90;;;;;;4997852;28;20038;-73
2022/08/17 05:33:53;;;;;;;30.58;23.23;;;20.00;99.90;;;;;;5001981;28;20046;-73
2022/08/17 05:36:20;;;;;;;30.92;25.65;;;20.00;99.90;;;;;;5005081;28;20104;-72
2022/08/17 05:39:06;;;;;;;30.30;24.48;;;20.00;99.90;;;;;;4999337;28;20363;-72
2022/08/17 05:41:36;;;;;;;34.05;24.73;;;20.00;99.90;;;;;;5002091;28;20042;-72
2022/08/17 05:44:03;;;;;;;33.00;26.27;;;20.10;99.90;;;;;;5001530;28;20046;-72
2022/08/17 05:46:35;;;;;;;34.47;26.67;;;20.10;99.90;;;;;;5002636;28;20046;-72
2022/08/17 05:49:06;;;;;;;33.60;26.33;;;20.20;99.90;;;;;;4998757;28;20038;-72
2022/08/17 05:52:07;;;;;;;31.23;24.15;;;20.20;99.90;;;;;;4996779;28;20360;-74
2022/08/17 05:55:09;;;;;;;33.17;26.00;;;20.30;99.90;;;;;;4998514;28;20073;-73
2022/08/17 05:57:58;;;;;;;27.77;24.40;;;20.30;99.90;;;;;;4993951;28;20073;-73
2022/08/17 06:00:32;;;;;;;30.05;26.38;;;20.40;99.90;;;;;;4996789;28;20506;-73
2022/08/17 06:03:32;;;;;;;26.05;23.35;;;20.40;99.90;;;;;;5000437;28;20046;-73
2022/08/17 06:06:16;;;;;;;26.98;23.50;;;20.40;99.90;;;;;;4994756;28;20073;-72
2022/08/17 06:08:52;;;;;;;29.85;25.67;;;20.40;99.90;;;;;;4995380;28;20084;-73
2022/08/17 06:11:35;;;;;;;27.63;23.35;;;20.50;99.90;;;;;;4993121;28;20112;-73
2022/08/17 06:14:08;;;;;;;28.00;25.08;;;20.50;99.90;;;;;;4991596;28;20115;-72
2022/08/17 06:16:43;;;;;;;26.40;23.10;;;20.50;99.90;;;;;;4997767;28;20052;-74
2022/08/17 06:19:16;;;;;;;24.92;22.42;;;20.50;99.90;;;;;;4990445;28;20054;-73
2022/08/17 06:21:48;;;;;;;26.50;23.85;;;20.60;99.90;;;;;;5000732;28;20043;-74
2022/08/17 06:24:27;;;;;;;28.42;23.88;;;20.60;99.90;;;;;;4995357;28;20137;-70
2022/08/17 06:27:00;;;;;;;24.50;22.00;;;20.60;99.90;;;;;;4999734;28;20678;-74
2022/08/17 06:29:34;;;;;;;30.38;27.23;;;20.70;99.90;;;;;;5000359;28;20054;-73
2022/08/17 06:32:02;;;;;;;24.55;21.95;;;20.70;99.90;;;;;;5003283;28;20045;-73
2022/08/17 06:34:31;;;;;;;24.90;22.30;;;20.80;99.90;;;;;;5005592;28;20064;-74
2022/08/17 06:37:09;;;;;;;23.88;21.27;;;20.90;99.90;;;;;;5008006;28;20126;-73
2022/08/17 06:39:46;;;;;;;26.80;23.88;;;20.90;99.90;;;;;;4995687;28;20070;-73
2022/08/17 06:42:19;;;;;;;23.50;21.10;;;21.10;99.90;;;;;;4999197;28;20097;-73
2022/08/17 06:45:27;;;;;;;23.48;21.00;;;21.20;99.90;;;;;;4996410;28;20052;-72
2022/08/17 06:47:58;;;;;;;23.38;21.00;;;21.30;99.90;;;;;;4998443;28;20471;-74
2022/08/17 06:50:43;;;;;;;24.65;21.63;;;21.30;99.90;;;;;;4997762;28;20050;-71
2022/08/17 06:53:31;;;;;;;20.80;18.77;;;21.30;99.90;;;;;;5002903;28;20144;-73
2022/08/17 06:56:05;;;;;;;22.83;20.27;;;21.30;99.90;;;;;;4996073;28;20108;-73
2022/08/17 06:58:34;;;;;;;22.25;20.05;;;21.30;99.90;;;;;;5001705;28;20322;-74
2022/08/17 07:01:14;;;;;;;24.90;19.50;;;21.30;99.90;;;;;;5003722;28;20085;-73
2022/08/17 07:03:57;;;;;;;21.52;19.40;;;21.30;99.90;;;;;;4996186;28;20046;-74
2022/08/17 07:06:34;;;;;;;;;;;21.30;99.90;;;;;;5003513;28;20429;-73
2022/08/17 07:09:27;;;;;;;21.20;19.00;;;21.40;99.90;;;;;;4993825;28;20020;-74
2022/08/17 07:12:00;;;;;;;21.95;19.85;;;21.40;99.90;;;;;;4993552;28;20053;-74
2022/08/17 07:14:51;;;;;;;19.15;17.23;;;21.50;99.90;;;;;;5001692;28;20400;-74
2022/08/17 07:17:22;;;;;;;21.85;19.75;;;21.60;99.90;;;;;;5001466;28;20057;-74
2022/08/17 07:20:14;;;;;;;21.35;19.15;;;21.60;99.90;;;;;;5002942;28;20048;-74
2022/08/17 07:23:21;;;;;;;17.80;15.98;;;21.70;99.90;;;;;;4994271;28;20046;-74
2022/08/17 07:25:49;;;;;;;18.55;16.63;;;21.80;99.90;;;;;;4996521;28;20073;-74
2022/08/17 07:28:21;;;;;;;18.73;16.92;;;21.90;99.90;;;;;;5002372;28;20135;-72
2022/08/17 07:30:53;;;;;;;17.48;15.82;;;22.00;99.90;;;;;;4998769;28;20137;-73
2022/08/17 07:33:24;;;;;;;18.55;16.63;;;22.10;99.90;;;;;;5000661;28;20189;-73
2022/08/17 07:35:52;;;;;;;19.00;17.05;;;22.10;99.90;;;;;;4998628;28;20042;-72
2022/08/17 07:38:28;;;;;;;17.27;15.43;;;22.20;99.90;;;;;;4998164;28;20795;-73
2022/08/17 07:41:01;;;;;;;16.85;14.93;;;22.20;99.90;;;;;;5001856;28;20714;-72
2022/08/17 07:43:33;;;;;;;16.48;14.80;;;22.30;99.90;;;;;;5002337;28;23273;-73
2022/08/17 07:49:13;;;;;;;17.38;15.65;;;22.30;99.90;;;;;;4998248;28;20104;-74
2022/08/17 07:51:43;;;;;;;18.00;16.20;;;22.30;99.90;;;;;;4996994;28;20137;-73
2022/08/17 07:54:24;;;;;;;16.20;13.50;;;22.40;99.90;;;;;;4978859;28;20054;-74
2022/08/17 07:56:56;;;;;;;15.10;13.63;;;22.40;99.90;;;;;;4992361;28;20077;-71
2022/08/17 07:59:32;;;;;;;17.05;13.07;;;22.40;99.90;;;;;;4999026;28;20119;-74
2022/08/17 08:02:04;;;;;;;14.10;12.68;;;22.50;99.90;;;;;;5000060;28;20144;-74
2022/08/17 08:04:59;;;;;;;12.50;11.27;;;22.60;99.90;;;;;;5002095;28;20132;-73
2022/08/17 08:07:37;;;;;;;12.48;11.25;;;22.70;99.90;;;;;;4995638;28;20388;-72
2022/08/17 08:10:07;;;;;;;12.30;11.20;;;22.80;99.90;;;;;;4992750;28;20050;-74
2022/08/17 08:12:35;;;;;;;15.23;13.90;;;22.90;99.90;;;;;;4994755;28;20097;-75
2022/08/17 08:15:32;;;;;;;11.68;10.57;;;22.90;99.90;;;;;;4993790;28;20057;-74
2022/08/17 08:18:02;;;;;;;13.77;11.88;;;23.10;99.90;;;;;;4992019;28;20054;-72
2022/08/17 08:20:34;;;;;;;;;;;23.00;99.90;;;;;;4996108;28;20063;-74
2022/08/17 08:23:43;;;;;;;14.50;12.90;;;23.10;99.90;;;;;;4986125;28;20033;-71
2022/08/17 08:26:29;;;;;;;13.40;12.18;;;23.10;99.90;;;;;;4991437;28;20176;-73
2022/08/17 08:29:27;;;;;;;15.13;13.70;;;23.20;99.90;;;;;;4995984;28;20058;-74
2022/08/17 08:32:18;;;;;;;15.25;13.77;;;23.30;99.90;;;;;;4994809;28;20045;-74
2022/08/17 08:35:06;;;;;;;15.55;14.00;;;23.30;99.90;;;;;;5002875;28;20352;-73
2022/08/17 08:38:04;;;;;;;15.32;13.73;;;23.30;99.90;;;;;;4992250;28;20046;-75
2022/08/17 08:40:43;;;;;;;14.77;13.40;;;23.30;99.90;;;;;;5012336;28;20099;-77
2022/08/17 08:43:48;;;;;;;19.02;14.75;;;23.10;99.90;;;;;;4984436;28;20085;-74
2022/08/17 08:46:56;;;;;;;16.33;14.80;;;23.10;99.90;;;;;;4992367;28;20069;-71
2022/08/17 08:49:32;;;;;;;18.75;16.85;;;23.10;99.90;;;;;;4995981;28;20127;-74
2022/08/17 08:52:48;;;;;;;16.85;15.30;;;23.00;99.90;;;;;;4994456;28;20392;-72
2022/08/17 08:55:49;;;;;;;15.85;14.18;;;23.00;99.90;;;;;;4985972;28;20495;-75
2022/08/17 08:58:28;;;;;;;17.55;14.32;;;23.10;99.90;;;;;;4994389;28;20070;-75
2022/08/17 09:01:26;;;;;;;16.75;14.95;;;23.20;99.90;;;;;;4998795;28;20060;-72
2022/08/17 09:04:26;;;;;;;17.45;15.65;;;23.30;99.90;;;;;;5001091;28;20644;-75
2022/08/17 09:07:00;;;;;;;17.10;15.60;;;23.40;99.90;;;;;;5000252;28;20161;-75
2022/08/17 09:09:41;;;;;;;17.48;15.75;;;23.40;99.90;;;;;;5001322;28;20046;-74
2022/08/17 09:12:23;;;;;;;17.40;15.68;;;23.50;99.90;;;;;;4996949;28;20101;-74
2022/08/17 09:14:53;;;;;;;17.58;15.88;;;23.50;99.90;;;;;;4999303;28;20120;-73
2022/08/17 09:17:31;;;;;;;18.08;16.48;;;23.50;99.90;;;;;;4993696;28;20137;-74
2022/08/17 09:20:37;;;;;;;19.05;17.17;;;23.40;99.90;;;;;;4988672;28;20192;-74
2022/08/17 09:23:25;;;;;;;15.73;14.30;;;23.40;99.90;;;;;;4974190;28;20149;-75
2022/08/17 09:26:20;;;;;;;16.45;14.80;;;23.30;99.90;;;;;;4983971;28;20045;-75
2022/08/17 09:29:00;;;;;;;17.15;15.38;;;23.40;99.90;;;;;;4992470;28;20109;-74
2022/08/17 09:31:57;;;;;;;16.45;14.82;;;23.50;99.90;;;;;;4993948;28;20049;-73
2022/08/17 09:34:41;;;;;;;17.35;15.80;;;23.40;99.90;;;;;;5000688;28;20462;-74
2022/08/17 09:37:51;;;;;;;17.60;15.75;;;23.40;99.90;;;;;;5000002;28;20417;-75
2022/08/17 09:40:31;;;;;;;15.00;13.57;;;23.50;99.90;;;;;;4996442;28;20463;-74
2022/08/17 09:43:05;;;;;;;14.70;13.40;;;23.70;99.90;;;;;;4996082;28;20054;-74
2022/08/17 09:45:43;;;;;;;16.50;14.95;;;23.80;99.90;;;;;;4984661;28;20132;-75
2022/08/17 09:48:17;;;;;;;13.73;12.52;;;24.00;99.90;;;;;;5000594;28;20073;-75
2022/08/17 09:50:54;;;;;;;12.82;11.63;;;24.10;99.90;;;;;;5002884;28;20064;-76
2022/08/17 09:53:31;;;;;;;13.68;12.38;;;24.10;99.90;;;;;;4998923;28;20093;-73
2022/08/17 09:56:07;;;;;;;18.13;16.45;;;24.20;99.90;;;;;;4995282;28;20191;-74
2022/08/17 09:59:13;;;;;;;15.90;14.43;;;24.00;99.90;;;;;;5002098;28;20076;-75
2022/08/17 10:02:26;;;;;;;14.50;13.10;;;23.90;99.90;;;;;;4996923;28;20157;-74
2022/08/17 10:05:12;;;;;;;13.55;12.23;;;23.80;99.90;;;;;;4994088;28;20364;-75
2022/08/17 10:07:54;;;;;;;14.65;13.15;;;24.00;99.90;;;;;;5002095;28;20302;-75
2022/08/17 10:10:32;;;;;;;14.27;12.40;;;24.10;99.90;;;;;;4992170;28;20060;-75
2022/08/17 10:13:34;;;;;;;13.38;12.18;;;24.10;99.90;;;;;;5000256;28;20227;-75
2022/08/17 10:16:18;;;;;;;14.15;12.95;;;24.20;99.90;;;;;;4981511;28;20061;-74
2022/08/17 10:18:48;;;;;;;13.20;11.93;;;24.20;99.90;;;;;;5003680;28;20159;-73
2022/08/17 10:27:41;;;;;;;16.70;12.27;;;24.80;99.90;;;;;;4994877;28;20145;-75
2022/08/17 10:30:12;;;;;;;16.20;14.55;;;24.60;99.90;;;;;;4992970;28;20599;-75
2022/08/17 10:32:48;;;;;;;13.32;12.02;;;24.50;99.90;;;;;;4997126;28;20429;-75
2022/08/17 10:35:18;;;;;;;13.55;12.20;;;24.20;99.90;;;;;;5002043;28;20050;-75
2022/08/17 10:37:58;;;;;;;15.10;13.70;;;24.30;99.90;;;;;;5001131;28;20061;-74
2022/08/17 10:40:54;;;;;;;13.77;12.38;;;24.30;99.90;;;;;;5002508;28;20053;-75
2022/08/17 10:43:59;;;;;;;16.08;12.35;;;24.30;99.90;;;;;;4980414;28;20093;-74
2022/08/17 10:47:05;;;;;;;15.05;13.75;;;24.30;99.90;;;;;;5003697;28;20042;-74
2022/08/17 10:49:35;;;;;;;13.60;12.05;;;24.40;99.90;;;;;;4986729;28;20385;-75
2022/08/17 10:52:22;;;;;;;11.75;10.70;;;24.50;99.90;;;;;;4995809;28;20034;-75
2022/08/17 10:54:50;;;;;;;13.68;12.40;;;24.60;99.90;;;;;;4997228;28;20137;-76
2022/08/17 10:57:33;;;;;;;13.30;12.05;;;24.60;99.90;;;;;;5000210;28;20045;-76
2022/08/17 11:00:14;;;;;;;15.63;14.18;;;24.60;99.90;;;;;;4995696;28;20453;-75
2022/08/17 11:02:48;;;;;;;14.30;13.02;;;24.40;99.90;;;;;;5001255;28;20042;-73
2022/08/17 11:05:34;;;;;;;14.13;12.73;;;24.20;99.90;;;;;;4995098;28;20053;-74
2022/08/17 11:08:29;;;;;;;12.90;11.80;;;24.30;99.90;;;;;;4996001;28;20057;-72
2022/08/17 11:11:18;;;;;;;18.77;15.23;;;24.40;99.90;;;;;;4986902;28;20423;-74
2022/08/17 11:14:05;;;;;;;17.90;16.20;;;24.40;99.90;;;;;;4999324;28;20132;-73
2022/08/17 11:16:53;;;;;;;16.40;14.88;;;24.40;99.90;;;;;;4993370;28;20417;-74
2022/08/17 11:19:29;;;;;;;16.90;15.18;;;24.60;99.90;;;;;;4988594;28;20069;-75
2022/08/17 11:22:15;;;;;;;14.95;13.55;;;24.50;99.90;;;;;;4994846;28;20058;-73
2022/08/17 11:24:46;;;;;;;17.80;14.10;;;24.50;99.90;;;;;;5001653;28;20132;-74
2022/08/17 11:27:29;;;;;;;15.43;14.02;;;24.60;99.90;;;;;;4993116;28;20052;-77
2022/08/17 11:29:58;;;;;;;15.48;13.90;;;24.50;99.90;;;;;;4999216;28;20081;-74
2022/08/17 11:32:31;;;;;;;14.00;12.80;;;24.30;99.90;;;;;;4997436;28;20109;-78
2022/08/17 11:35:17;;;;;;;14.93;13.52;;;24.20;99.90;;;;;;5005240;28;20052;-76
2022/08/17 11:37:59;;;;;;;13.60;12.30;;;24.30;99.90;;;;;;5000362;28;20057;-71
2022/08/17 11:40:51;;;;;;;14.35;13.00;;;24.40;99.90;;;;;;4991112;28;20055;-74
2022/08/17 11:43:20;;;;;;;15.32;13.63;;;24.60;99.90;;;;;;4989086;28;20054;-75
2022/08/17 11:46:15;;;;;;;14.82;13.43;;;24.90;99.90;;;;;;4993565;28;20037;-74
2022/08/17 11:52:06;;;;;;;14.70;13.32;;;24.70;99.90;;;;;;4998720;28;20421;-75
2022/08/17 11:54:46;;;;;;;16.40;14.68;;;24.90;99.90;;;;;;4997800;28;20044;-73
2022/08/17 11:57:25;;;;;;;16.90;15.17;;;24.40;99.90;;;;;;4993409;28;20152;-72
2022/08/17 12:00:14;;;;;;;15.25;13.85;;;24.10;99.90;;;;;;4994859;28;20284;-75
2022/08/17 12:02:47;;;;;;;14.23;12.98;;;24.00;99.90;;;;;;4999828;28;20122;-76
2022/08/17 12:05:21;;;;;;;15.70;14.18;;;24.20;99.90;;;;;;5001121;28;20040;-74
2022/08/17 12:08:09;;;;;;;14.32;12.98;;;24.20;99.90;;;;;;5002544;28;20481;-74
2022/08/17 12:10:51;;;;;;;14.27;13.07;;;24.30;99.90;;;;;;4990267;28;20042;-73
2022/08/17 12:13:18;;;;;;;17.00;14.07;;;24.30;99.90;;;;;;4991948;28;20047;-74
2022/08/17 12:15:49;;;;;;;17.73;14.82;;;24.20;99.90;;;;;;4988124;28;20042;-74
2022/08/17 12:18:28;;;;;;;15.65;14.07;;;24.00;99.90;;;;;;4997660;28;20095;-73
2022/08/17 12:21:18;;;;;;;13.97;12.67;;;24.30;99.90;;;;;;4989850;28;20120;-74
2022/08/17 12:24:23;;;;;;;13.13;11.82;;;24.50;99.90;;;;;;4991849;28;20047;-74
2022/08/17 12:26:54;;;;;;;15.57;13.93;;;24.40;99.90;;;;;;4988344;28;20153;-74
2022/08/17 12:29:22;;;;;;;14.65;13.25;;;24.40;99.90;;;;;;4991024;28;20212;-75
2022/08/17 12:32:11;;;;;;;15.38;13.98;;;24.40;99.90;;;;;;4987821;28;20141;-74
2022/08/17 12:34:41;;;;;;;14.40;13.10;;;24.40;99.90;;;;;;4990991;28;20495;-73
2022/08/17 12:37:19;;;;;;;15.23;13.93;;;24.40;99.90;;;;;;4997011;28;20461;-73
2022/08/17 12:39:52;;;;;;;13.30;12.00;;;24.50;99.90;;;;;;5009845;28;20152;-74
2022/08/17 12:42:26;;;;;;;13.70;12.43;;;24.70;99.90;;;;;;5000085;28;20046;-76
2022/08/17 12:44:53;;;;;;;12.93;10.98;;;24.80;99.90;;;;;;4988517;28;20048;-72
2022/08/17 12:47:20;;;;;;;13.10;11.20;;;24.90;99.90;;;;;;4987755;28;20050;-74
2022/08/17 12:49:51;;;;;;;12.68;11.38;;;25.00;99.90;;;;;;4990660;28;20047;-74
2022/08/17 12:52:23;;;;;;;15.23;13.67;;;25.10;99.90;;;;;;4996196;28;20516;-72
2022/08/17 12:54:53;;;;;;;12.43;11.23;;;25.00;99.90;;;;;;4993353;28;20284;-74
2022/08/17 12:57:33;;;;;;;12.82;11.45;;;25.10;99.90;;;;;;4993167;28;20117;-75
2022/08/17 13:00:14;;;;;;;13.80;12.38;;;25.20;99.90;;;;;;4991123;28;20109;-74
2022/08/17 13:02:44;;;;;;;11.82;10.73;;;25.40;99.90;;;;;;4987534;28;20129;-74
2022/08/17 13:05:19;;;;;;;11.88;10.55;;;25.70;99.90;;;;;;4984406;28;20066;-74
2022/08/17 13:07:46;;;;;;;11.32;10.32;;;26.00;99.90;;;;;;4988817;28;20058;-72
2022/08/17 13:10:21;;;;;;;12.43;11.07;;;26.00;99.90;;;;;;5001871;28;21287;-75
2022/08/17 13:12:49;;;;;;;10.55;9.63;;;26.30;99.90;;;;;;4998254;28;20042;-75
2022/08/17 13:15:22;;;;;;;15.35;10.93;;;26.60;99.90;;;;;;4991291;28;20061;-74
2022/08/17 13:18:16;;;;;;;11.27;10.27;;;26.80;99.90;;;;;;4989414;28;20109;-73
2022/08/17 13:20:52;;;;;;;10.13;9.23;;;27.00;99.90;;;;;;4965092;28;20042;-75
2022/08/17 13:23:20;;;;;;;12.32;11.23;;;26.90;99.90;;;;;;4992046;28;20137;-74
2022/08/17 13:25:54;;;;;;;12.30;11.07;;;27.00;99.90;;;;;;4992246;28;20542;-75
2022/08/17 13:28:26;;;;;;;11.00;9.93;;;26.90;99.90;;;;;;5002843;28;20041;-74
2022/08/17 13:31:31;;;;;;;12.70;11.40;;;26.80;99.90;;;;;;4992061;28;20115;-72
2022/08/17 13:34:15;;;;;;;10.40;9.50;;;26.80;99.90;;;;;;4997534;28;20038;-75
2022/08/17 13:36:44;;;;;;;;;;;26.70;99.90;;;;;;4989718;28;20177;-76
2022/08/17 13:39:20;;;;;;;12.50;11.20;;;26.50;99.90;;;;;;4991016;28;20012;-76
2022/08/17 13:41:48;;;;;;;11.55;10.45;;;26.30;99.90;;;;;;4995622;28;20103;-72
2022/08/17 13:44:32;;;;;;;13.23;10.70;;;26.30;99.90;;;;;;4997810;28;20108;-75
2022/08/17 13:47:01;;;;;;;11.65;10.60;;;26.50;99.90;;;;;;4990291;28;20128;-72